Time;durP1;ratioP1;P1;durP2;ratioP2;P2;SDS_P1;SDS_P2;PMS_P1;PMS_P2;Temp;Humidity;BMP_temperature;BMP_pressure;BME280_temperature;BME280_humidity;BME280_pressure;Samples;Min_cycle;Max_cycle;Signal;HPM_P1;HPM_P2
2023/05/05 00:02:30;;;;;;;1.40;0.90;;;18.50;81.40;;;;;;5018664;28;21059;-81
2023/05/05 00:04:57;;;;;;;1.47;0.90;;;18.50;81.90;;;;;;5022858;28;20853;-80
2023/05/05 00:07:23;;;;;;;1.50;0.90;;;18.50;82.40;;;;;;5006185;28;20490;-80
2023/05/05 00:09:54;;;;;;;1.43;1.00;;;18.40;82.50;;;;;;4999175;28;20526;-81
2023/05/05 00:12:21;;;;;;;1.47;0.90;;;18.40;82.90;;;;;;5003131;28;20999;-81
2023/05/05 00:14:48;;;;;;;1.47;0.90;;;18.30;84.10;;;;;;4992965;28;20509;-80
2023/05/05 00:17:15;;;;;;;1.43;0.97;;;18.30;84.40;;;;;;5000050;28;20531;-81
2023/05/05 09:06:28;;;;;;;1.43;0.80;;;25.30;81.40;;;;;;5030065;22;20504;-76
2023/05/05 09:08:55;;;;;;;1.50;1.00;;;25.30;81.40;;;;;;4981584;28;20484;-77
2023/05/05 09:11:22;;;;;;;1.43;0.90;;;25.30;80.40;;;;;;4974487;28;20481;-79
2023/05/05 09:13:49;;;;;;;1.47;0.80;;;25.20;81.70;;;;;;4976422;28;20609;-80
2023/05/05 09:16:16;;;;;;;1.43;0.80;;;25.00;81.90;;;;;;4979251;28;20479;-78
2023/05/05 09:18:44;;;;;;;1.43;0.90;;;24.80;82.70;;;;;;4999848;28;20477;-78
2023/05/05 09:21:21;;;;;;;1.43;0.90;;;25.00;84.60;;;;;;4977853;28;20559;-75
2023/05/05 09:24:05;;;;;;;1.40;0.90;;;25.20;82.20;;;;;;4986514;28;20457;-79
2023/05/05 09:26:34;;;;;;;1.43;0.80;;;25.40;81.50;;;;;;4974004;28;20879;-78
2023/05/05 09:29:01;;;;;;;1.47;0.90;;;25.60;80.80;;;;;;4979921;28;20993;-79
2023/05/05 09:31:29;;;;;;;1.43;0.80;;;25.80;80.60;;;;;;4974339;28;20481;-82
2023/05/05 09:33:59;;;;;;;1.47;0.80;;;25.90;78.40;;;;;;4978670;28;20461;-77
2023/05/05 09:36:41;;;;;;;1.43;0.83;;;26.00;77.00;;;;;;4974816;28;20493;-77
2023/05/05 09:39:10;;;;;;;1.47;0.83;;;26.10;77.00;;;;;;4976035;28;21026;-79
2023/05/05 09:41:38;;;;;;;1.50;0.80;;;26.10;76.80;;;;;;4972000;28;20476;-80
2023/05/05 09:44:05;;;;;;;1.50;0.90;;;26.30;78.30;;;;;;4975766;28;20471;-75
2023/05/05 09:46:32;;;;;;;1.43;0.80;;;26.50;76.80;;;;;;4973410;28;20571;-76
2023/05/05 09:49:12;;;;;;;1.50;0.90;;;26.60;75.60;;;;;;4979567;28;20492;-78
2023/05/05 09:51:39;;;;;;;1.50;0.80;;;26.80;75.20;;;;;;4971683;28;21001;-79
2023/05/05 09:54:06;;;;;;;1.47;0.80;;;27.00;74.30;;;;;;4980269;28;20755;-79
2023/05/05 09:56:40;;;;;;;1.50;0.80;;;27.30;75.40;;;;;;4973692;28;20616;-78
2023/05/05 09:59:11;;;;;;;1.50;0.80;;;27.60;73.90;;;;;;4981545;28;20481;-78
2023/05/05 10:01:38;;;;;;;1.47;0.80;;;27.70;74.10;;;;;;4981550;28;20547;-82
2023/05/05 10:04:05;;;;;;;1.50;0.90;;;27.70;74.00;;;;;;4986392;28;20517;-78
2023/05/05 10:06:43;;;;;;;1.43;0.80;;;27.80;74.00;;;;;;4970708;28;20486;-77
2023/05/05 10:09:09;;;;;;;1.47;0.80;;;27.90;73.60;;;;;;4983428;28;20484;-77
2023/05/05 10:11:36;;;;;;;1.50;0.90;;;27.80;71.90;;;;;;4971502;28;20492;-77
2023/05/05 10:14:07;;;;;;;1.47;0.80;;;27.80;72.90;;;;;;4975532;28;20469;-78
2023/05/05 10:16:35;;;;;;;1.47;0.90;;;27.90;72.30;;;;;;4980168;28;20484;-78
2023/05/05 10:19:03;;;;;;;1.43;0.80;;;27.70;73.20;;;;;;4992635;28;20491;-79
2023/05/05 10:21:35;;;;;;;1.43;0.80;;;27.40;73.70;;;;;;4973480;28;20535;-78
2023/05/05 10:24:09;;;;;;;1.43;0.80;;;27.10;74.30;;;;;;4979367;28;20460;-78
2023/05/05 10:26:41;;;;;;;1.43;0.90;;;26.80;74.60;;;;;;4980679;28;20496;-81
2023/05/05 10:29:16;;;;;;;1.47;0.80;;;26.70;75.10;;;;;;4987668;28;20483;-81
2023/05/05 10:31:46;;;;;;;1.47;0.80;;;26.60;75.20;;;;;;4971140;28;20485;-78
2023/05/05 10:34:20;;;;;;;1.47;0.80;;;26.30;75.20;;;;;;4980944;28;20846;-81
2023/05/05 10:36:48;;;;;;;1.50;0.90;;;25.90;76.50;;;;;;4970182;28;20880;-78
2023/05/05 10:39:18;;;;;;;1.50;0.80;;;25.70;77.20;;;;;;4981484;28;20541;-81
2023/05/05 10:41:46;;;;;;;1.50;0.90;;;25.60;77.50;;;;;;4966692;28;20486;-78
2023/05/05 10:44:15;;;;;;;1.50;0.80;;;25.60;77.50;;;;;;4982220;28;20997;-82
2023/05/05 10:46:43;;;;;;;1.50;0.90;;;25.50;77.60;;;;;;4981584;28;20503;-79
2023/05/05 10:49:17;;;;;;;1.40;0.80;;;25.40;77.30;;;;;;4992841;28;20485;-79
2023/05/05 10:52:02;;;;;;;1.40;0.90;;;25.30;78.00;;;;;;4971103;28;20481;-79
2023/05/05 10:54:36;;;;;;;1.43;0.80;;;25.20;78.80;;;;;;4982095;28;20460;-79
2023/05/05 10:57:07;;;;;;;1.47;0.90;;;25.00;78.70;;;;;;4968045;28;20514;-83
2023/05/05 10:59:42;;;;;;;1.43;0.90;;;24.90;79.20;;;;;;4984433;28;20465;-78
2023/05/05 11:02:26;;;;;;;1.50;0.90;;;24.70;79.40;;;;;;4975528;28;21024;-79
2023/05/05 11:05:07;;;;;;;1.43;0.80;;;24.50;81.50;;;;;;4981469;28;20496;-86
2023/05/05 11:07:34;;;;;;;1.50;0.90;;;24.30;83.80;;;;;;4961130;28;20482;-82
2023/05/05 11:10:04;;;;;;;1.43;0.80;;;24.00;86.30;;;;;;4985909;28;20483;-87
2023/05/05 11:12:32;;;;;;;1.40;0.80;;;23.80;89.50;;;;;;4965647;28;20486;-84
2023/05/05 11:15:37;;;;;;;1.50;0.80;;;23.30;89.50;;;;;;4987004;28;20523;-84
2023/05/05 11:18:05;;;;;;;1.50;0.83;;;22.80;90.20;;;;;;4959355;28;20486;-76
2023/05/05 11:21:03;;;;;;;1.50;0.83;;;22.20;93.80;;;;;;4981172;28;20465;-78
2023/05/05 11:23:30;;;;;;;1.50;0.90;;;21.50;87.80;;;;;;4958941;28;20852;-77
2023/05/05 11:25:58;;;;;;;1.50;0.90;;;21.00;89.40;;;;;;4978657;28;20500;-78
2023/05/05 11:28:28;;;;;;;1.43;0.90;;;20.40;94.50;;;;;;4964117;28;20587;-77
2023/05/05 11:31:18;;;;;;;1.47;0.90;;;20.00;96.80;;;;;;4969826;28;20473;-79
2023/05/05 11:33:46;;;;;;;1.47;0.90;;;19.80;98.20;;;;;;4985387;28;20469;-80
2023/05/05 11:36:14;;;;;;;1.47;0.90;;;19.60;98.20;;;;;;4972646;28;20476;-79
2023/05/05 11:39:03;;;;;;;1.70;1.53;;;19.60;98.20;;;;;;4992850;28;20485;-80
2023/05/05 11:41:51;;;;;;;1.47;0.90;;;19.50;98.20;;;;;;4976374;28;20488;-79
2023/05/05 11:44:19;;;;;;;1.50;0.90;;;19.40;98.20;;;;;;4990849;28;20820;-78
2023/05/05 11:47:16;;;;;;;1.43;0.90;;;19.40;98.20;;;;;;4974641;28;20485;-78
2023/05/05 11:49:44;;;;;;;1.50;0.90;;;19.30;98.20;;;;;;4967934;28;20469;-79
2023/05/05 11:52:12;;;;;;;1.47;0.90;;;19.20;98.20;;;;;;4977012;28;20481;-76
2023/05/05 11:54:40;;;;;;;1.50;0.90;;;19.00;98.20;;;;;;4984710;28;20494;-78
2023/05/05 11:57:08;;;;;;;1.50;0.90;;;18.60;98.20;;;;;;4963412;28;20485;-77
2023/05/05 11:59:49;;;;;;;1.50;0.90;;;18.40;98.20;;;;;;4982390;28;20461;-79
2023/05/05 12:02:16;;;;;;;1.50;0.90;;;18.30;98.20;;;;;;4973985;28;21056;-77
2023/05/05 12:04:45;;;;;;;1.47;0.90;;;18.30;98.20;;;;;;4987210;28;20469;-79
2023/05/05 12:07:15;;;;;;;2.37;1.53;;;18.40;98.20;;;;;;4963044;28;20971;-78
2023/05/05 12:09:44;;;;;;;1.40;0.90;;;18.40;98.20;;;;;;4979487;28;20818;-79
2023/05/05 12:12:11;;;;;;;1.43;0.90;;;18.50;98.20;;;;;;4962104;28;20502;-78
2023/05/05 12:14:46;;;;;;;1.50;0.90;;;18.70;98.20;;;;;;4978322;28;20469;-77
2023/05/05 12:17:12;;;;;;;1.47;0.90;;;19.00;98.20;;;;;;4973025;28;20886;-78
2023/05/05 12:19:49;;;;;;;1.47;0.90;;;19.20;98.20;;;;;;4982693;28;20480;-78
2023/05/05 12:22:21;;;;;;;1.43;0.90;;;19.50;98.20;;;;;;4977271;28;20484;-76
2023/05/05 12:24:59;;;;;;;1.47;0.90;;;19.70;98.20;;;;;;4984536;28;20538;-78
2023/05/05 12:27:27;;;;;;;1.50;0.90;;;20.00;98.20;;;;;;4976125;28;20491;-78
2023/05/05 12:29:55;;;;;;;1.47;0.90;;;20.20;98.20;;;;;;4986021;28;20461;-78
2023/05/05 12:32:23;;;;;;;1.40;0.90;;;20.40;98.20;;;;;;4961617;28;20486;-79
2023/05/05 12:34:54;;;;;;;1.47;0.90;;;20.60;98.20;;;;;;4980724;28;20469;-78
2023/05/05 12:37:22;;;;;;;1.50;0.90;;;20.90;98.20;;;;;;4961114;28;20517;-78
2023/05/05 12:39:49;;;;;;;1.50;0.90;;;21.10;98.20;;;;;;4981813;28;20465;-80
2023/05/05 12:42:16;;;;;;;1.43;0.90;;;21.20;98.20;;;;;;4962831;28;20521;-78
2023/05/05 12:44:43;;;;;;;1.47;0.90;;;21.30;98.20;;;;;;4979323;28;20461;-78
2023/05/05 12:47:11;;;;;;;1.50;0.90;;;21.30;98.20;;;;;;4963961;28;20482;-77
2023/05/05 12:49:45;;;;;;;1.47;0.90;;;21.40;98.20;;;;;;4975589;28;20456;-79
2023/05/05 12:52:15;;;;;;;1.50;0.80;;;21.40;98.20;;;;;;4963314;28;20478;-78
2023/05/05 12:54:55;;;;;;;1.50;0.90;;;21.40;98.20;;;;;;4979386;28;20469;-77
2023/05/05 12:57:22;;;;;;;1.47;0.90;;;21.50;98.20;;;;;;4989977;28;20905;-77
2023/05/05 12:59:50;;;;;;;1.43;0.80;;;21.50;98.20;;;;;;4980111;28;20502;-78
2023/05/05 13:02:17;;;;;;;1.47;0.80;;;21.50;98.20;;;;;;4967782;28;20485;-79
2023/05/05 13:04:51;;;;;;;1.43;0.90;;;21.60;98.20;;;;;;4983885;28;20504;-77
2023/05/05 13:07:21;;;;;;;1.43;0.87;;;21.60;98.20;;;;;;4960536;28;20584;-79
2023/05/05 13:09:49;;;;;;;1.47;0.90;;;21.70;98.20;;;;;;4985487;28;20456;-79
2023/05/05 13:12:18;;;;;;;1.50;0.80;;;21.80;98.20;;;;;;4963336;28;21049;-80
2023/05/05 13:14:51;;;;;;;1.43;0.90;;;21.90;98.20;;;;;;4982488;28;20475;-78
2023/05/05 13:20:06;;;;;;;1.60;1.20;;;22.10;98.20;;;;;;4982325;28;20576;-77
2023/05/05 13:22:34;;;;;;;1.50;0.90;;;22.20;98.20;;;;;;4959841;28;20819;-78
2023/05/05 13:25:00;;;;;;;1.50;0.90;;;22.20;98.20;;;;;;4982554;28;20461;-79
2023/05/05 13:27:27;;;;;;;1.50;1.10;;;22.30;98.20;;;;;;4960913;28;20915;-78
2023/05/05 13:29:54;;;;;;;1.43;0.90;;;22.40;98.20;;;;;;4982883;28;20468;-78
2023/05/05 13:32:21;;;;;;;1.47;0.90;;;22.50;98.20;;;;;;4977021;28;20559;-78
2023/05/05 13:34:48;;;;;;;1.47;0.80;;;22.50;98.20;;;;;;4983472;28;20480;-76
2023/05/05 13:37:14;;;;;;;1.47;0.87;;;22.40;98.20;;;;;;4977246;28;20493;-78
2023/05/05 13:39:43;;;;;;;1.47;0.90;;;22.40;97.40;;;;;;4989409;28;20468;-79
2023/05/05 13:42:10;;;;;;;1.47;0.90;;;22.30;96.60;;;;;;4987199;28;20532;-78
2023/05/05 13:44:36;;;;;;;1.43;0.80;;;22.20;96.50;;;;;;4991841;28;20500;-79
2023/05/05 13:47:03;;;;;;;1.43;0.87;;;22.20;96.80;;;;;;4980574;28;20495;-78
2023/05/05 13:49:30;;;;;;;1.47;0.90;;;22.10;98.20;;;;;;4997704;28;20461;-80
2023/05/05 13:52:09;;;;;;;1.50;0.90;;;22.00;96.60;;;;;;5005852;28;20487;-82
2023/05/05 13:54:36;;;;;;;1.47;0.90;;;22.00;96.40;;;;;;4997020;28;20461;-78
2023/05/05 13:57:06;;;;;;;1.50;0.90;;;21.90;97.60;;;;;;4976352;28;20493;-80
2023/05/05 13:59:33;;;;;;;1.43;0.90;;;21.80;97.10;;;;;;4987562;28;20461;-78
2023/05/05 14:02:01;;;;;;;1.47;0.90;;;21.70;97.40;;;;;;4991978;28;20826;-79
2023/05/05 14:04:28;;;;;;;1.47;0.87;;;21.70;98.20;;;;;;4992556;28;20889;-78
2023/05/05 14:06:57;;;;;;;1.50;0.90;;;21.70;98.20;;;;;;4972593;28;20480;-78
2023/05/05 14:09:24;;;;;;;1.47;0.87;;;21.60;97.90;;;;;;4979343;28;20496;-76
2023/05/05 14:11:52;;;;;;;1.50;0.90;;;21.60;98.20;;;;;;4977058;28;20516;-77
2023/05/05 14:14:21;;;;;;;1.50;0.83;;;21.50;97.50;;;;;;4986777;28;20544;-78
2023/05/05 14:16:48;;;;;;;1.47;0.90;;;21.50;98.20;;;;;;4974901;28;20481;-80
2023/05/05 14:19:15;;;;;;;1.47;0.90;;;21.50;98.20;;;;;;4985598;28;20489;-80
2023/05/05 14:21:42;;;;;;;1.50;0.90;;;21.40;98.20;;;;;;4969515;28;20502;-79
2023/05/05 14:24:09;;;;;;;1.40;0.90;;;21.40;96.10;;;;;;4975708;28;20522;-79
2023/05/05 14:26:37;;;;;;;1.47;0.90;;;21.30;95.20;;;;;;4968091;28;20853;-78
2023/05/05 14:29:05;;;;;;;1.43;0.90;;;21.30;96.30;;;;;;4986581;28;20610;-80
2023/05/05 14:31:34;;;;;;;1.50;0.90;;;21.20;97.50;;;;;;4974147;28;20496;-82
2023/05/05 14:34:05;;;;;;;1.50;0.90;;;21.10;98.00;;;;;;4985949;28;20599;-80
2023/05/05 14:36:32;;;;;;;1.50;1.00;;;21.10;97.80;;;;;;4976313;28;20952;-79
2023/05/05 14:38:59;;;;;;;1.47;0.90;;;21.00;98.20;;;;;;4983909;28;20528;-77
2023/05/05 14:41:27;;;;;;;1.50;0.90;;;21.00;98.20;;;;;;4980549;28;20480;-81
2023/05/05 14:43:54;;;;;;;1.50;0.90;;;20.90;98.20;;;;;;4982271;28;20970;-84
2023/05/05 14:46:21;;;;;;;1.50;0.90;;;20.80;98.20;;;;;;4978888;28;20495;-78
2023/05/05 14:48:50;;;;;;;1.47;0.90;;;20.70;98.20;;;;;;4988475;28;20549;-84
2023/05/05 14:51:18;;;;;;;1.43;0.90;;;20.50;98.20;;;;;;4976352;28;21018;-80
2023/05/05 14:53:45;;;;;;;1.43;0.90;;;20.40;98.20;;;;;;4989398;28;20555;-80
2023/05/05 14:59:15;;;;;;;1.47;0.90;;;20.10;98.20;;;;;;4984210;28;20485;-82
2023/05/05 15:01:42;;;;;;;1.40;0.90;;;19.70;98.20;;;;;;4973743;28;20496;-81
2023/05/05 15:04:10;;;;;;;1.50;0.90;;;19.40;98.20;;;;;;4982647;28;20474;-79
2023/05/05 15:06:37;;;;;;;1.47;0.90;;;19.10;98.20;;;;;;4977291;28;20503;-78
2023/05/05 15:09:07;;;;;;;1.50;0.90;;;18.80;98.20;;;;;;4989874;28;21168;-79
2023/05/05 15:11:44;;;;;;;1.50;0.90;;;18.40;98.20;;;;;;4969276;28;20563;-77
2023/05/05 15:14:10;;;;;;;1.50;0.90;;;18.00;98.20;;;;;;4976529;28;20799;-78
2023/05/05 15:16:37;;;;;;;1.47;0.90;;;17.70;98.20;;;;;;4977070;28;20730;-78
2023/05/05 15:19:04;;;;;;;1.50;0.90;;;17.30;98.20;;;;;;4984933;28;20497;-76
2023/05/05 15:21:37;;;;;;;1.50;1.20;;;17.10;98.20;;;;;;4976794;28;20572;-78
2023/05/05 15:24:04;;;;;;;1.50;1.00;;;17.00;98.20;;;;;;4981097;28;20519;-79
2023/05/05 15:26:31;;;;;;;1.47;0.90;;;16.80;98.20;;;;;;4981599;28;20508;-76
2023/05/05 15:28:58;;;;;;;1.50;1.00;;;16.80;98.20;;;;;;4981055;28;20942;-77
2023/05/05 15:31:25;;;;;;;1.50;0.90;;;16.80;98.20;;;;;;4974287;28;20958;-78
2023/05/05 15:33:52;;;;;;;1.50;0.90;;;16.90;98.20;;;;;;4981907;28;20496;-79
2023/05/05 15:36:21;;;;;;;1.47;0.90;;;16.90;98.20;;;;;;4973832;28;20489;-80
2023/05/05 15:38:49;;;;;;;1.50;1.00;;;16.90;98.20;;;;;;4981352;28;20481;-79
2023/05/05 15:41:18;;;;;;;1.50;0.90;;;16.90;98.20;;;;;;4970956;28;21167;-77
2023/05/05 15:43:45;;;;;;;1.43;0.90;;;17.00;98.20;;;;;;4980289;28;20465;-77
2023/05/05 15:46:12;;;;;;;1.40;0.90;;;17.00;98.20;;;;;;4970996;28;20488;-78
2023/05/05 15:48:41;;;;;;;1.50;0.90;;;17.10;98.20;;;;;;4979955;28;20491;-79
2023/05/05 15:51:08;;;;;;;1.50;1.00;;;17.10;98.20;;;;;;4970481;28;20486;-79
2023/05/05 15:53:37;;;;;;;1.50;0.90;;;17.10;98.20;;;;;;4975534;28;20467;-77
2023/05/05 15:56:06;;;;;;;1.47;0.90;;;17.10;98.20;;;;;;4967803;28;20548;-79
2023/05/05 15:58:33;;;;;;;1.50;1.00;;;17.20;98.20;;;;;;4980734;28;20493;-77
2023/05/05 16:01:00;;;;;;;1.43;0.90;;;17.20;98.20;;;;;;4969671;28;20468;-79
2023/05/05 16:03:27;;;;;;;1.50;0.90;;;17.20;98.20;;;;;;4970513;28;20470;-77
2023/05/05 16:05:54;;;;;;;1.47;0.90;;;17.10;98.20;;;;;;4971325;28;20472;-78
2023/05/05 16:08:20;;;;;;;1.47;0.90;;;17.10;98.20;;;;;;4968245;28;21028;-78
2023/05/05 16:10:47;;;;;;;1.47;0.90;;;17.10;98.20;;;;;;4992764;28;21087;-79
2023/05/05 16:13:16;;;;;;;1.67;1.40;;;17.00;98.20;;;;;;4983187;28;20542;-79
2023/05/05 16:15:43;;;;;;;1.50;0.93;;;17.00;98.20;;;;;;4982894;28;20541;-79
2023/05/05 16:18:10;;;;;;;1.43;0.90;;;17.00;98.20;;;;;;4983113;28;21292;-78
2023/05/05 16:20:37;;;;;;;1.43;0.90;;;17.00;98.20;;;;;;4977115;28;20918;-80
2023/05/05 16:23:04;;;;;;;1.47;0.90;;;17.00;98.20;;;;;;4977289;28;20580;-77
2023/05/05 16:25:32;;;;;;;1.50;1.00;;;16.90;98.20;;;;;;4979977;28;20464;-77
2023/05/05 16:28:00;;;;;;;1.47;0.90;;;16.90;98.20;;;;;;4967992;28;20856;-77
2023/05/05 16:30:28;;;;;;;1.50;0.90;;;16.90;98.20;;;;;;4976513;28;20556;-77
2023/05/05 16:32:55;;;;;;;1.47;0.90;;;17.10;98.20;;;;;;4973756;28;20512;-76
2023/05/05 16:35:22;;;;;;;1.40;0.90;;;17.10;98.20;;;;;;4983114;28;20464;-77
2023/05/05 16:37:49;;;;;;;1.50;0.93;;;17.10;98.20;;;;;;4976359;28;20480;-78
2023/05/05 16:40:18;;;;;;;1.50;0.93;;;17.00;98.20;;;;;;4985178;28;20850;-79
2023/05/05 16:42:45;;;;;;;1.50;0.90;;;17.00;98.20;;;;;;4977680;28;20501;-78
2023/05/05 16:45:12;;;;;;;1.50;0.90;;;16.90;98.20;;;;;;4985257;28;20473;-77
2023/05/05 16:47:49;;;;;;;1.50;0.90;;;16.90;98.20;;;;;;4976605;28;20500;-79
2023/05/05 16:50:17;;;;;;;1.47;0.90;;;17.00;98.20;;;;;;4986599;28;20460;-77
2023/05/05 16:52:43;;;;;;;1.50;1.00;;;17.20;98.20;;;;;;4975273;28;21110;-79
2023/05/05 16:55:10;;;;;;;1.50;1.10;;;17.30;98.20;;;;;;4983588;28;20465;-78
2023/05/05 16:57:37;;;;;;;1.47;0.90;;;17.20;98.20;;;;;;4990333;28;20867;-78
2023/05/05 17:00:05;;;;;;;1.50;1.00;;;17.10;98.20;;;;;;4983519;28;20621;-78
2023/05/05 17:02:31;;;;;;;1.50;1.00;;;17.00;98.20;;;;;;4962298;28;20501;-79
2023/05/05 17:04:59;;;;;;;1.50;1.00;;;16.90;98.20;;;;;;4986879;28;20465;-78
2023/05/05 17:07:26;;;;;;;1.40;0.90;;;16.80;98.20;;;;;;4962742;28;20485;-76
2023/05/05 17:09:53;;;;;;;1.47;0.93;;;16.80;98.20;;;;;;4987441;28;20468;-77
2023/05/05 17:12:20;;;;;;;1.47;0.90;;;16.70;98.20;;;;;;4961293;28;20517;-76
2023/05/05 17:14:47;;;;;;;1.47;0.90;;;16.70;98.20;;;;;;4980226;28;20538;-76
2023/05/05 17:17:14;;;;;;;1.50;1.00;;;16.60;98.20;;;;;;4989070;28;20944;-78
2023/05/05 17:19:41;;;;;;;1.50;0.90;;;16.50;98.20;;;;;;4993202;28;20892;-80
2023/05/05 17:22:09;;;;;;;1.47;0.90;;;16.40;98.20;;;;;;4965413;28;20489;-77
2023/05/05 17:24:36;;;;;;;1.43;0.90;;;16.30;98.20;;;;;;4982654;28;20465;-79
2023/05/05 17:27:03;;;;;;;1.47;0.90;;;16.30;98.20;;;;;;4967498;28;20501;-77
2023/05/05 17:29:30;;;;;;;1.50;1.00;;;16.20;98.20;;;;;;4982482;28;20472;-78
2023/05/05 17:31:57;;;;;;;1.47;0.90;;;16.20;98.20;;;;;;4969864;28;20493;-77
2023/05/05 17:34:24;;;;;;;1.50;1.10;;;16.10;98.20;;;;;;4980490;28;20465;-81
2023/05/05 17:36:50;;;;;;;1.47;0.90;;;16.10;98.20;;;;;;4980634;28;20601;-79
2023/05/05 17:39:19;;;;;;;1.50;1.17;;;16.00;98.20;;;;;;4989635;28;20492;-77
2023/05/05 17:41:45;;;;;;;1.50;0.90;;;15.90;98.20;;;;;;4978208;28;20485;-75
2023/05/05 17:44:12;;;;;;;1.50;1.10;;;15.90;98.20;;;;;;4987185;28;20465;-80
2023/05/05 17:46:39;;;;;;;1.47;0.90;;;15.90;98.20;;;;;;4970767;28;20483;-78
2023/05/05 17:49:06;;;;;;;1.50;1.00;;;15.90;98.20;;;;;;4985063;28;20513;-80
2023/05/05 17:51:33;;;;;;;1.50;1.00;;;15.90;98.20;;;;;;4976276;28;20575;-80
2023/05/05 17:54:00;;;;;;;1.50;1.00;;;15.90;98.20;;;;;;4987021;28;20469;-80
2023/05/05 17:56:28;;;;;;;1.50;1.00;;;15.90;98.20;;;;;;4976478;28;20475;-79
2023/05/05 17:58:55;;;;;;;1.50;0.90;;;15.90;98.20;;;;;;4986846;28;20507;-81
2023/05/05 18:01:22;;;;;;;1.43;1.00;;;15.90;98.20;;;;;;4984409;28;20484;-79
2023/05/05 18:03:49;;;;;;;1.50;1.00;;;15.90;98.20;;;;;;4988225;28;20468;-82
2023/05/05 18:06:16;;;;;;;1.50;1.00;;;15.90;98.20;;;;;;4974602;28;20471;-79
2023/05/05 18:08:43;;;;;;;1.47;0.90;;;15.90;98.20;;;;;;4983355;28;20484;-77
2023/05/05 18:11:12;;;;;;;1.43;0.90;;;15.90;98.20;;;;;;4971540;28;20951;-79
2023/05/05 18:13:41;;;;;;;1.50;0.90;;;15.90;98.20;;;;;;4985618;28;21045;-80
2023/05/05 18:16:07;;;;;;;1.43;0.90;;;15.90;98.20;;;;;;4976894;28;21006;-79
2023/05/05 18:18:34;;;;;;;1.50;1.00;;;15.80;98.20;;;;;;4998648;28;20499;-81
2023/05/05 18:21:02;;;;;;;1.43;0.90;;;15.80;98.20;;;;;;4975238;28;20675;-79
2023/05/05 18:23:29;;;;;;;1.50;1.00;;;15.70;98.20;;;;;;4987686;28;20465;-78
2023/05/05 18:25:56;;;;;;;1.50;0.90;;;15.70;98.20;;;;;;4972179;28;20884;-79
2023/05/05 18:28:23;;;;;;;1.50;1.00;;;15.70;98.20;;;;;;4999610;28;20488;-78
2023/05/05 18:30:51;;;;;;;1.50;1.00;;;15.60;98.20;;;;;;4972451;28;20472;-78
2023/05/05 18:33:18;;;;;;;1.50;0.97;;;15.50;98.20;;;;;;4982273;28;20465;-78
2023/05/05 18:35:45;;;;;;;1.50;1.00;;;15.40;98.20;;;;;;4983372;28;20469;-78
2023/05/05 18:38:12;;;;;;;1.50;1.00;;;15.40;98.20;;;;;;4959468;28;20542;-78
2023/05/05 18:40:42;;;;;;;1.50;1.00;;;15.30;98.20;;;;;;4982632;28;20468;-81
2023/05/05 18:43:20;;;;;;;1.50;0.90;;;15.30;98.20;;;;;;4972881;28;20568;-82
2023/05/05 18:46:05;;;;;;;1.50;1.00;;;15.30;98.20;;;;;;4976664;28;20511;-80
2023/05/05 18:48:33;;;;;;;1.50;0.90;;;15.30;98.20;;;;;;4981896;28;20554;-81
2023/05/05 18:51:04;;;;;;;1.50;0.93;;;15.40;98.20;;;;;;4976723;28;20489;-83
2023/05/05 18:53:32;;;;;;;1.50;0.97;;;15.40;98.20;;;;;;4994482;28;20468;-84
2023/05/05 18:56:00;;;;;;;1.47;1.00;;;15.40;98.20;;;;;;4978579;28;20522;-79
2023/05/05 18:58:30;;;;;;;1.50;1.00;;;15.50;98.20;;;;;;5040543;28;20512;-81
2023/05/05 19:00:57;;;;;;;1.50;1.00;;;15.50;98.20;;;;;;4971535;28;20467;-82
2023/05/05 19:03:25;;;;;;;1.47;1.00;;;15.50;98.20;;;;;;4995299;28;20503;-81
2023/05/05 19:05:53;;;;;;;1.50;1.00;;;15.50;98.20;;;;;;4970920;28;20477;-82
2023/05/05 19:08:19;;;;;;;1.50;1.03;;;15.50;98.20;;;;;;4973160;28;20484;-78
2023/05/05 19:10:46;;;;;;;1.47;1.00;;;15.50;98.20;;;;;;4989578;28;20648;-79
2023/05/05 19:13:13;;;;;;;1.50;1.00;;;15.40;98.20;;;;;;5009486;28;20526;-80
2023/05/05 19:15:41;;;;;;;1.50;1.00;;;15.40;98.20;;;;;;4983985;28;20487;-78
2023/05/05 19:18:08;;;;;;;1.50;0.90;;;15.40;98.20;;;;;;4969412;28;20572;-78
2023/05/05 19:20:37;;;;;;;1.50;1.00;;;15.40;98.20;;;;;;4981875;28;20484;-82
2023/05/05 19:23:05;;;;;;;1.50;1.00;;;15.30;98.20;;;;;;4970318;28;20492;-82
2023/05/05 19:25:32;;;;;;;1.50;1.00;;;15.30;98.20;;;;;;4979225;28;21011;-80
2023/05/05 19:27:59;;;;;;;1.47;0.90;;;15.30;98.20;;;;;;4989020;28;20488;-80
2023/05/05 19:30:26;;;;;;;1.50;1.00;;;15.20;98.20;;;;;;4981835;28;20484;-84
2023/05/05 19:32:52;;;;;;;1.50;1.00;;;15.20;98.20;;;;;;4987199;28;20490;-81
2023/05/05 19:35:20;;;;;;;1.50;1.10;;;15.20;98.20;;;;;;4981283;28;20468;-80
2023/05/05 19:37:48;;;;;;;1.50;1.00;;;15.20;98.20;;;;;;4987117;28;20950;-81
2023/05/05 19:40:15;;;;;;;1.50;1.00;;;15.20;98.20;;;;;;4980773;28;20465;-81
2023/05/05 19:42:41;;;;;;;1.50;1.00;;;15.20;98.20;;;;;;4987899;28;20628;-81
2023/05/05 19:45:09;;;;;;;1.50;0.90;;;15.10;98.20;;;;;;4979349;28;21155;-81
2023/05/05 19:47:35;;;;;;;1.50;1.00;;;15.10;98.20;;;;;;4984652;28;20488;-83
2023/05/05 19:50:03;;;;;;;1.50;1.00;;;15.00;98.20;;;;;;4979990;28;20931;-81
2023/05/05 19:52:30;;;;;;;1.50;1.00;;;15.00;98.20;;;;;;4981790;28;20516;-80
2023/05/05 19:54:58;;;;;;;1.50;0.90;;;15.00;98.20;;;;;;4981362;28;20461;-80
2023/05/05 19:57:25;;;;;;;1.50;1.00;;;14.90;98.20;;;;;;4959211;28;20493;-81
2023/05/05 19:59:53;;;;;;;1.50;1.00;;;14.80;98.20;;;;;;4976834;28;20520;-80
2023/05/05 20:02:20;;;;;;;1.50;1.00;;;14.80;98.20;;;;;;4982771;28;20510;-78
2023/05/05 20:04:48;;;;;;;1.50;1.00;;;14.70;98.20;;;;;;4982484;28;20510;-80
2023/05/05 20:07:16;;;;;;;1.50;1.00;;;14.70;98.20;;;;;;4971502;28;21026;-82
2023/05/05 20:09:43;;;;;;;1.47;1.00;;;14.60;98.20;;;;;;4979023;28;20458;-81
2023/05/05 20:12:12;;;;;;;1.50;1.00;;;14.50;98.20;;;;;;5018149;28;20477;-82
2023/05/05 20:14:39;;;;;;;1.50;1.00;;;14.50;98.20;;;;;;4996939;28;20984;-82
2023/05/05 20:17:05;;;;;;;1.50;1.00;;;14.50;98.20;;;;;;5026582;28;20507;-80
2023/05/05 20:19:32;;;;;;;1.50;1.00;;;14.40;98.20;;;;;;5008901;28;20493;-80
2023/05/05 20:21:59;;;;;;;1.50;1.10;;;14.40;98.20;;;;;;4978594;28;21076;-81
2023/05/05 20:24:27;;;;;;;1.70;1.53;;;14.30;98.20;;;;;;4982511;28;20595;-79
2023/05/05 20:26:54;;;;;;;1.50;1.10;;;14.30;98.20;;;;;;4977816;28;20543;-79
2023/05/05 20:29:22;;;;;;;1.50;0.97;;;14.30;98.20;;;;;;4989793;28;20776;-80
2023/05/05 20:31:49;;;;;;;1.50;1.10;;;14.20;98.20;;;;;;4970398;28;21413;-81
2023/05/05 20:34:16;;;;;;;1.50;1.00;;;14.20;98.20;;;;;;4980013;28;20921;-81
2023/05/05 20:36:52;;;;;;;1.50;1.00;;;14.20;98.20;;;;;;4968027;28;20489;-83
2023/05/05 20:39:18;;;;;;;1.50;1.00;;;14.20;98.20;;;;;;4978526;28;20557;-81
2023/05/05 20:41:46;;;;;;;1.50;1.00;;;14.10;98.20;;;;;;4968147;28;20799;-82
2023/05/05 20:44:13;;;;;;;1.50;1.00;;;14.10;98.20;;;;;;4976877;28;20473;-82
2023/05/05 20:46:41;;;;;;;1.50;1.00;;;14.10;98.20;;;;;;5003630;28;20496;-80
2023/05/05 20:49:08;;;;;;;1.50;1.00;;;14.00;98.20;;;;;;5025309;28;20874;-82
2023/05/05 20:51:38;;;;;;;1.50;1.00;;;14.00;98.20;;;;;;4977053;28;20858;-82
2023/05/05 20:54:05;;;;;;;1.50;1.10;;;14.00;98.20;;;;;;4978620;28;20720;-83
2023/05/05 20:56:32;;;;;;;1.50;1.00;;;14.00;98.20;;;;;;4978837;28;20495;-81
2023/05/05 20:58:58;;;;;;;1.50;1.00;;;14.00;98.20;;;;;;4979858;28;20579;-81
2023/05/05 21:01:25;;;;;;;1.50;1.00;;;14.00;98.20;;;;;;4992402;28;20468;-84
2023/05/05 21:03:54;;;;;;;1.50;1.10;;;13.90;98.20;;;;;;5029233;28;20958;-80
2023/05/05 21:06:20;;;;;;;1.50;1.00;;;13.90;98.20;;;;;;4981200;28;20478;-82
2023/05/05 21:08:47;;;;;;;1.50;1.00;;;13.90;98.20;;;;;;4995565;28;20488;-80
2023/05/05 21:11:14;;;;;;;1.50;1.00;;;13.90;98.20;;;;;;4974439;28;20482;-79
2023/05/05 21:13:43;;;;;;;1.50;1.10;;;13.90;98.20;;;;;;4976677;28;20548;-82
2023/05/05 21:16:11;;;;;;;1.50;1.00;;;13.90;98.20;;;;;;4980489;28;21029;-80
2023/05/05 21:18:37;;;;;;;1.50;1.00;;;13.90;98.20;;;;;;4991654;28;21226;-81
2023/05/05 21:21:06;;;;;;;1.50;1.10;;;13.90;98.20;;;;;;4975962;28;20523;-79
2023/05/05 21:23:32;;;;;;;1.50;1.00;;;13.90;98.20;;;;;;4987568;28;20521;-80
2023/05/05 21:25:59;;;;;;;1.50;1.00;;;13.90;98.20;;;;;;4985231;28;20468;-81
2023/05/05 21:28:26;;;;;;;1.47;1.00;;;13.90;98.20;;;;;;4974188;28;20675;-79
2023/05/05 21:30:53;;;;;;;1.50;1.00;;;13.90;98.20;;;;;;4987720;28;20457;-80
2023/05/05 21:33:41;;;;;;;1.50;1.00;;;13.90;98.20;;;;;;4973453;28;20461;-80
2023/05/05 21:36:09;;;;;;;1.50;1.17;;;13.90;98.20;;;;;;4979549;28;21020;-79
2023/05/05 21:38:36;;;;;;;1.50;1.10;;;13.90;98.20;;;;;;4995143;28;20631;-81
2023/05/05 21:41:02;;;;;;;1.60;1.40;;;13.90;98.20;;;;;;4980499;28;20483;-82
2023/05/05 21:43:29;;;;;;;1.50;1.10;;;13.90;98.20;;;;;;4984655;28;20461;-79
2023/05/05 21:45:59;;;;;;;1.50;1.00;;;13.90;98.20;;;;;;4983464;28;20461;-81
2023/05/05 21:48:26;;;;;;;1.50;1.00;;;13.90;98.20;;;;;;4999820;28;20489;-79
2023/05/05 21:50:53;;;;;;;1.50;1.00;;;13.90;98.20;;;;;;4990504;28;20596;-82